Time,TemperatureF,DewpointF,PressureIn,WindDirection,WindDirectionDegrees,WindSpeedMPH,WindSpeedGustMPH,Humidity,HourlyPrecipIn,Conditions,Clouds,dailyrainin,SoftwareType,DateUTC
2013-04-12 00:00:00,44.0,37.0,30.12,ENE,60,11.0,11.0,78,-99.99,,,-99.99,,2013-04-12 04:00:00,
2013-04-12 00:22:00,44.0,37.0,30.12,ENE,60,11.0,11.0,78,-99.99,,,-99.99,,2013-04-12 04:22:00,
2013-04-12 00:33:00,44.0,37.0,30.12,ENE,60,11.0,11.0,78,-99.99,,,-99.99,,2013-04-12 04:33:00,
2013-04-12 00:42:00,44.0,37.0,30.12,ENE,60,11.0,11.0,78,-99.99,,,-99.99,,2013-04-12 04:42:00,
2013-04-12 00:52:00,44.0,37.0,30.12,ENE,60,11.0,11.0,78,-99.99,,,-99.99,,2013-04-12 04:52:00,
2013-04-12 01:00:00,44.0,37.0,30.14,ENE,60,13.0,13.0,77,-99.99,,,-99.99,,2013-04-12 05:00:00,
2013-04-12 01:22:00,44.0,37.0,30.14,ENE,60,13.0,13.0,77,-99.99,,,-99.99,,2013-04-12 05:22:00,
2013-04-12 01:32:00,44.0,37.0,30.14,ENE,60,13.0,13.0,77,-99.99,,,-99.99,,2013-04-12 05:32:00,
2013-04-12 01:42:00,44.0,37.0,30.14,ENE,60,13.0,13.0,77,-99.99,,,-99.99,,2013-04-12 05:42:00,
2013-04-12 01:51:00,44.0,37.0,30.14,ENE,60,13.0,13.0,77,-99.99,,,-99.99,,2013-04-12 05:51:00,
2013-04-12 02:00:00,43.0,37.0,30.10,ENE,70,18.0,20.0,78,-99.99,,,-99.99,,2013-04-12 06:00:00,
2013-04-12 02:21:00,43.0,37.0,30.10,ENE,70,18.0,20.0,78,-99.99,,,-99.99,,2013-04-12 06:21:00,
2013-04-12 02:31:00,43.0,37.0,30.10,ENE,70,18.0,20.0,78,-99.99,,,-99.99,,2013-04-12 06:31:00,
2013-04-12 02:42:00,43.0,37.0,30.10,ENE,70,18.0,20.0,78,-99.99,,,-99.99,,2013-04-12 06:42:00,
2013-04-12 02:52:00,43.0,37.0,30.10,ENE,70,18.0,20.0,78,-99.99,,,-99.99,,2013-04-12 06:52:00,
2013-04-12 03:00:00,43.0,37.0,30.12,ENE,60,17.0,20.0,77,-99.99,,,-99.99,,2013-04-12 07:00:00,
2013-04-12 03:21:00,43.0,37.0,30.12,ENE,60,17.0,20.0,77,-99.99,,,-99.99,,2013-04-12 07:21:00,
2013-04-12 03:31:00,43.0,37.0,30.12,ENE,60,17.0,20.0,77,-99.99,,,-99.99,,2013-04-12 07:31:00,
2013-04-12 03:41:00,43.0,37.0,30.12,ENE,60,17.0,20.0,77,-99.99,,,-99.99,,2013-04-12 07:41:00,
2013-04-12 03:52:00,43.0,37.0,30.12,ENE,60,17.0,20.0,77,-99.99,,,-99.99,,2013-04-12 07:52:00,
2013-04-12 04:00:00,44.0,32.0,30.11,ENE,60,21.0,22.0,64,-99.99,,,-99.99,,2013-04-12 08:00:00,
2013-04-12 04:21:00,44.0,32.0,30.11,ENE,60,21.0,22.0,64,-99.99,,,-99.99,,2013-04-12 08:21:00,
2013-04-12 04:31:00,44.0,32.0,30.11,ENE,60,21.0,22.0,64,-99.99,,,-99.99,,2013-04-12 08:31:00,
2013-04-12 04:41:00,44.0,32.0,30.11,ENE,60,21.0,22.0,64,-99.99,,,-99.99,,2013-04-12 08:41:00,
2013-04-12 04:51:00,44.0,32.0,30.11,ENE,60,21.0,22.0,64,-99.99,,,-99.99,,2013-04-12 08:51:00,
2013-04-12 05:00:00,43.0,32.0,30.09,ENE,60,23.0,26.0,64,-99.99,,,-99.99,,2013-04-12 09:00:00,
2013-04-12 05:21:00,43.0,32.0,30.09,ENE,60,23.0,26.0,64,-99.99,,,-99.99,,2013-04-12 09:21:00,
2013-04-12 05:32:00,43.0,32.0,30.09,ENE,60,23.0,26.0,64,-99.99,,,-99.99,,2013-04-12 09:32:00,
2013-04-12 05:42:00,43.0,32.0,30.09,ENE,60,23.0,26.0,64,-99.99,,,-99.99,,2013-04-12 09:42:00,
2013-04-12 05:52:00,43.0,32.0,30.09,ENE,60,23.0,26.0,64,-99.99,,,-99.99,,2013-04-12 09:52:00,
2013-04-12 06:00:00,44.0,29.0,30.09,ENE,70,30.0,33.0,57,-99.99,,,-99.99,,2013-04-12 10:00:00,
2013-04-12 06:22:00,44.0,29.0,30.09,ENE,70,30.0,33.0,57,-99.99,,,-99.99,,2013-04-12 10:22:00,
2013-04-12 06:33:00,44.0,29.0,30.09,ENE,70,30.0,33.0,57,-99.99,,,-99.99,,2013-04-12 10:33:00,
2013-04-12 06:42:00,44.0,29.0,30.09,ENE,70,30.0,33.0,57,-99.99,,,-99.99,,2013-04-12 10:42:00,
2013-04-12 06:52:00,44.0,29.0,30.09,ENE,70,30.0,33.0,57,-99.99,,,-99.99,,2013-04-12 10:52:00,
2013-04-12 07:00:00,43.0,32.0,30.11,ENE,70,28.0,33.0,64,-99.99,,,-99.99,,2013-04-12 11:00:00,
2013-04-12 07:21:00,43.0,32.0,30.11,ENE,70,28.0,33.0,64,-99.99,,,-99.99,,2013-04-12 11:21:00,
2013-04-12 07:32:00,43.0,32.0,30.11,ENE,70,28.0,33.0,64,-99.99,,,-99.99,,2013-04-12 11:32:00,
2013-04-12 07:42:00,43.0,32.0,30.11,ENE,70,28.0,33.0,64,-99.99,,,-99.99,,2013-04-12 11:42:00,
2013-04-12 07:51:00,43.0,32.0,30.11,ENE,70,28.0,33.0,64,-99.99,,,-99.99,,2013-04-12 11:51:00,
2013-04-12 08:00:00,42.0,30.0,30.10,ENE,70,31.0,33.0,60,-99.99,,,-99.99,,2013-04-12 12:00:00,
2013-04-12 08:21:00,42.0,30.0,30.10,ENE,70,31.0,33.0,60,-99.99,,,-99.99,,2013-04-12 12:21:00,
2013-04-12 08:31:00,42.0,30.0,30.10,ENE,70,31.0,33.0,60,-99.99,,,-99.99,,2013-04-12 12:31:00,
2013-04-12 08:42:00,42.0,30.0,30.10,ENE,70,31.0,33.0,60,-99.99,,,-99.99,,2013-04-12 12:42:00,
2013-04-12 08:52:00,42.0,30.0,30.10,ENE,70,31.0,33.0,60,-99.99,,,-99.99,,2013-04-12 12:52:00,
2013-04-12 09:00:00,42.0,32.0,30.09,ENE,70,33.0,36.0,67,-99.99,,,-99.99,,2013-04-12 13:00:00,
2013-04-12 09:21:00,42.0,32.0,30.09,ENE,70,33.0,36.0,67,-99.99,,,-99.99,,2013-04-12 13:21:00,
2013-04-12 09:31:00,42.0,32.0,30.09,ENE,70,33.0,36.0,67,-99.99,,,-99.99,,2013-04-12 13:31:00,
2013-04-12 09:42:00,42.0,32.0,30.09,ENE,70,33.0,36.0,67,-99.99,,,-99.99,,2013-04-12 13:42:00,
2013-04-12 09:52:00,42.0,32.0,30.09,ENE,70,33.0,36.0,67,-99.99,,,-99.99,,2013-04-12 13:52:00,
2013-04-12 10:00:00,42.0,34.0,30.06,East,80,33.0,37.0,71,-99.99,,,-99.99,,2013-04-12 14:00:00,
2013-04-12 10:21:00,42.0,34.0,30.06,East,80,33.0,37.0,71,-99.99,,,-99.99,,2013-04-12 14:21:00,
2013-04-12 10:31:00,42.0,34.0,30.06,East,80,33.0,37.0,71,-99.99,,,-99.99,,2013-04-12 14:31:00,
2013-04-12 10:41:00,42.0,34.0,30.06,East,80,33.0,37.0,71,-99.99,,,-99.99,,2013-04-12 14:41:00,
2013-04-12 10:51:00,42.0,34.0,30.06,East,80,33.0,37.0,71,-99.99,,,-99.99,,2013-04-12 14:51:00,
2013-04-12 11:00:00,42.0,35.0,30.02,East,90,34.0,40.0,76,-99.99,,,-99.99,,2013-04-12 15:00:00,
2013-04-12 11:21:00,42.0,35.0,30.02,East,90,34.0,40.0,76,-99.99,,,-99.99,,2013-04-12 15:21:00,
2013-04-12 11:32:00,42.0,35.0,30.02,East,90,34.0,40.0,76,-99.99,,,-99.99,,2013-04-12 15:32:00,
2013-04-12 11:42:00,42.0,35.0,30.02,East,90,34.0,40.0,76,-99.99,,,-99.99,,2013-04-12 15:42:00,
2013-04-12 11:52:00,42.0,35.0,30.02,East,90,34.0,40.0,76,-99.99,,,-99.99,,2013-04-12 15:52:00,
2013-04-12 12:00:00,40.0,35.0,30.00,East,80,33.0,38.0,83,-99.99,,,-99.99,,2013-04-12 16:00:00,
2013-04-12 12:22:00,40.0,35.0,30.00,East,80,33.0,38.0,83,-99.99,,,-99.99,,2013-04-12 16:22:00,
2013-04-12 12:32:00,40.0,35.0,30.00,East,80,33.0,38.0,83,-99.99,,,-99.99,,2013-04-12 16:32:00,
2013-04-12 12:41:00,40.0,35.0,30.00,East,80,33.0,38.0,83,-99.99,,,-99.99,,2013-04-12 16:41:00,
2013-04-12 12:52:00,40.0,35.0,30.00,East,80,33.0,38.0,83,-99.99,,,-99.99,,2013-04-12 16:52:00,
2013-04-12 13:00:00,38.0,37.0,29.98,East,90,29.0,31.0,94,-99.99,,,-99.99,,2013-04-12 17:00:00,
2013-04-12 13:22:00,38.0,37.0,29.98,East,90,29.0,31.0,94,-99.99,,,-99.99,,2013-04-12 17:22:00,
2013-04-12 13:32:00,38.0,37.0,29.98,East,90,29.0,31.0,94,-99.99,,,-99.99,,2013-04-12 17:32:00,
2013-04-12 13:43:00,38.0,37.0,29.98,East,90,29.0,31.0,94,-99.99,,,-99.99,,2013-04-12 17:43:00,
2013-04-12 13:52:00,38.0,37.0,29.98,East,90,29.0,31.0,94,-99.99,,,-99.99,,2013-04-12 17:52:00,
2013-04-12 14:22:00,39.0,38.0,29.93,East,80,30.0,33.0,95,-99.99,,,-99.99,,2013-04-12 18:22:00,
2013-04-12 15:00:00,40.0,39.0,29.91,ENE,60,23.0,26.0,96,-99.99,,,-99.99,,2013-04-12 19:00:00,
2013-04-12 15:31:00,40.0,39.0,29.91,ENE,60,23.0,26.0,96,-99.99,,,-99.99,,2013-04-12 19:31:00,
2013-04-12 15:41:00,40.0,39.0,29.91,ENE,60,23.0,26.0,96,-99.99,,,-99.99,,2013-04-12 19:41:00,
2013-04-12 15:52:00,40.0,39.0,29.91,ENE,60,23.0,26.0,96,-99.99,,,-99.99,,2013-04-12 19:52:00,
2013-04-12 16:00:00,40.0,40.0,29.83,ENE,70,26.0,32.0,97,-99.99,,,-99.99,,2013-04-12 20:00:00,
2013-04-12 16:21:00,40.0,40.0,29.83,ENE,70,26.0,32.0,97,-99.99,,,-99.99,,2013-04-12 20:21:00,
2013-04-12 16:32:00,40.0,40.0,29.83,ENE,70,26.0,32.0,97,-99.99,,,-99.99,,2013-04-12 20:32:00,
2013-04-12 16:41:00,40.0,40.0,29.83,ENE,70,26.0,32.0,97,-99.99,,,-99.99,,2013-04-12 20:41:00,
2013-04-12 16:52:00,40.0,40.0,29.83,ENE,70,26.0,32.0,97,-99.99,,,-99.99,,2013-04-12 20:52:00,
2013-04-12 17:00:00,40.0,40.0,29.80,ENE,60,26.0,30.0,100,-99.99,,,-99.99,,2013-04-12 21:00:00,
2013-04-12 17:21:00,40.0,40.0,29.80,ENE,60,26.0,30.0,100,-99.99,,,-99.99,,2013-04-12 21:21:00,
2013-04-12 17:32:00,40.0,40.0,29.80,ENE,60,26.0,30.0,100,-99.99,,,-99.99,,2013-04-12 21:32:00,
2013-04-12 17:42:00,40.0,40.0,29.80,ENE,60,26.0,30.0,100,-99.99,,,-99.99,,2013-04-12 21:42:00,
2013-04-12 17:52:00,40.0,40.0,29.80,ENE,60,26.0,30.0,100,-99.99,,,-99.99,,2013-04-12 21:52:00,
2013-04-12 18:00:00,41.0,41.0,29.78,NE,50,30.0,32.0,100,-99.99,,,-99.99,,2013-04-12 22:00:00,
2013-04-12 18:22:00,41.0,41.0,29.78,NE,50,30.0,32.0,100,-99.99,,,-99.99,,2013-04-12 22:22:00,
2013-04-12 18:32:00,41.0,41.0,29.78,NE,50,30.0,32.0,100,-99.99,,,-99.99,,2013-04-12 22:32:00,
2013-04-12 18:42:00,41.0,41.0,29.78,NE,50,30.0,32.0,100,-99.99,,,-99.99,,2013-04-12 22:42:00,
2013-04-12 18:52:00,41.0,41.0,29.78,NE,50,30.0,32.0,100,-99.99,,,-99.99,,2013-04-12 22:52:00,
2013-04-12 19:00:00,41.0,41.0,29.74,NE,40,29.0,30.0,100,-99.99,,,-99.99,,2013-04-12 23:00:00,
2013-04-12 19:21:00,41.0,41.0,29.74,NE,40,29.0,30.0,100,-99.99,,,-99.99,,2013-04-12 23:21:00,
2013-04-12 19:31:00,41.0,41.0,29.74,NE,40,29.0,30.0,100,-99.99,,,-99.99,,2013-04-12 23:31:00,
2013-04-12 19:42:00,41.0,41.0,29.74,NE,40,29.0,30.0,100,-99.99,,,-99.99,,2013-04-12 23:42:00,
2013-04-12 19:51:00,41.0,41.0,29.74,NE,40,29.0,30.0,100,-99.99,,,-99.99,,2013-04-12 23:51:00,
2013-04-12 20:00:00,41.0,41.0,29.72,NNE,20,25.0,29.0,99,-99.99,,,-99.99,,2013-04-13 00:00:00,
2013-04-12 20:21:00,41.0,41.0,29.72,NNE,20,25.0,29.0,99,-99.99,,,-99.99,,2013-04-13 00:21:00,
2013-04-12 20:32:00,41.0,41.0,29.72,NNE,20,25.0,29.0,99,-99.99,,,-99.99,,2013-04-13 00:32:00,
2013-04-12 20:41:00,41.0,41.0,29.72,NNE,20,25.0,29.0,99,-99.99,,,-99.99,,2013-04-13 00:41:00,
2013-04-12 20:51:00,41.0,41.0,29.72,NNE,20,25.0,29.0,99,-99.99,,,-99.99,,2013-04-13 00:51:00,
2013-04-12 21:00:00,41.0,40.0,29.72,NNE,20,23.0,26.0,98,-99.99,,,-99.99,,2013-04-13 01:00:00,
2013-04-12 21:21:00,41.0,40.0,29.72,NNE,20,23.0,26.0,98,-99.99,,,-99.99,,2013-04-13 01:21:00,
2013-04-12 21:31:00,41.0,40.0,29.72,NNE,20,23.0,26.0,98,-99.99,,,-99.99,,2013-04-13 01:31:00,
2013-04-12 21:41:00,41.0,40.0,29.72,NNE,20,23.0,26.0,98,-99.99,,,-99.99,,2013-04-13 01:41:00,
2013-04-12 21:51:00,41.0,40.0,29.72,NNE,20,23.0,26.0,98,-99.99,,,-99.99,,2013-04-13 01:51:00,
2013-04-12 22:00:00,41.0,41.0,29.70,North,10,26.0,30.0,98,-99.99,,,-99.99,,2013-04-13 02:00:00,
2013-04-12 22:21:00,41.0,41.0,29.70,North,10,26.0,30.0,98,-99.99,,,-99.99,,2013-04-13 02:21:00,
2013-04-12 22:31:00,41.0,41.0,29.70,North,10,26.0,30.0,98,-99.99,,,-99.99,,2013-04-13 02:31:00,
2013-04-12 22:42:00,41.0,41.0,29.70,North,10,26.0,30.0,98,-99.99,,,-99.99,,2013-04-13 02:42:00,
2013-04-12 22:51:00,41.0,41.0,29.70,North,10,26.0,30.0,98,-99.99,,,-99.99,,2013-04-13 02:51:00,
2013-04-12 23:00:00,41.0,41.0,29.70,North,10,26.0,29.0,99,-99.99,,,-99.99,,2013-04-13 03:00:00,
2013-04-12 23:22:00,41.0,41.0,29.70,North,10,26.0,29.0,99,-99.99,,,-99.99,,2013-04-13 03:22:00,
2013-04-12 23:32:00,41.0,41.0,29.70,North,10,26.0,29.0,99,-99.99,,,-99.99,,2013-04-13 03:32:00,
2013-04-12 23:42:00,41.0,41.0,29.70,North,10,26.0,29.0,99,-99.99,,,-99.99,,2013-04-13 03:42:00,
2013-04-12 23:52:00,41.0,41.0,29.70,North,10,26.0,29.0,99,-99.99,,,-99.99,,2013-04-13 03:52:00,